Huvudsida
METAR-TAF:

METAR-TAF

Flygplatser :

Maracaibo, Venezuela

latitud: 10-34N, longitud: 071-44W, höjd: 66 m

METAR: saknas

Tid: 09:22 (13:22 UTC)

Väderprognos

Denna rapport gjordes för 3 timmar och 22 minuter sedan, klockan 10:00 UTC
Prognos gäller från 20 kl. 12 UTC till 21 kl. 12 UTC
Vind 12 kt från nord/nordost
Sikt: 9000 m
Få moln på en höjd av 1600 ft
duggregn
Temporärt
från 20 kl. 12 UTC till 20 kl. 16 UTC
Vind 8 kt från ost
Sikt: 9000 m
Brutna moln på en höjd av 1600 ft
Spridda moln på en höjd av 10000 ft
duggregn

TAF: SVMC 201000Z 2012/2112 02012KT 9000 DZ FEW016 TX30/18Z TN26/07Z TEMPO 2012/2016 10008KT 9000 DZ BKN016 SCT100

Aktuella väderrapporter och prognoser från 4000 flygplatser (METAR- och TAF-rapporter).

De tillgängliga stationerna syns som gula och röda prickar på kartan.

För musen över prickarna för att se namnen på stationerna.

Klicka sedan för att få väderrapporter och prognoser.

För att ändra kartan: Klicka på de gröna knapparna med ett svart kors på för att zooma in; den gröna knappen med ett streck på för att zooma ut; eller på de gröna pilarna för angränsande kartor.


METAR-TAF: